Antwerp, New York
Current Conditions -  °F | °C
As of 9:32 AM on Friday 28 Nov 2014 (Local Time) from KGTB Reporting Station
Overcast Overcast  
Wind Chill: -8°   Ceiling: 3000
Heat Index: -5°   Visibility: 10mi
Dew Point: -7°   Wind: 5mph
Humidity: 86%   Direction: NA
Pressure: 30.14"   Gusts: NA
Location:  44.2°N, 75.61°W
Report Text: KGTB 281432Z AUTO VRB04KT 10SM SCT023 BKN030 OVC035 M05/M07 A3014 RMK AO2 SNE1432 CIG 023 RWY03
Loading
Personal Weather Stations






























Interactive Weather Map New forecast layout! Learn more

10-Day Weather Forecast

Advertisements
Track Severe Weather on mobile